Accueil
METAR-TAF:

METAR-TAF

Aéroports :

Aéroport de Liepāja

Liepāja, Lettonie

latitude: 56-31N, longitude: 021-05E, altitude: 5 m

Observation

Le bulletin a été fait il y a 22 minutes, à 14:20 UTC
Vent 8 kt de ouest/sud-ouest
Température 21°C
Humidité 64%
Pression 1017 hPa
Visibilité 10 km ou plus

METAR: EVLA 131420Z AUTO 24008KT 9999 FEW067/// BKN090/// 21/14 Q1017

Heure: 17:42 (14:42 UTC)

Prévision

Le bulletin a été fait il y a 39 minutes, à 14:03 UTC
Prévision valable du 13 à 15 UTC au 14 à 15 UTC
Vent 7 kt de ouest/sud-ouest
Visibilité 10 km ou plus
pas de nuages en-dessous de 1500 mètres et pas de cumulonimbus.
Probabilité 40% :
Temporairement
du 13 à 20 UTC au 14 à 05 UTC
Visibilité: 3000 m
Brouillard mince, brume

TAF: EVLA 131403Z 1315/1415 24007KT CAVOK PROB40 TEMPO 1320/1405 3000 MIFG BR

Observations et prévisions météorologiques de plus de 4000 aéroports (messages METAR et TAF).

Les stations disponibles sont représentées par des disques jaunes et rouges sur la carte.

Passer la souris dessus pour voir le nom de la station.

Cliquer dessus pour voir les observations et prévisions météorologiques.

Pour changer de carte: cliquez sur les boutons verts avec une croix noire pour zoomer, sur le bouton vert avec un tiret pour effectuer un zoom arrière, ou sur les flèches vertes pour les cartes adjacentes.


METAR-TAF: